Time;durP1;ratioP1;P1;durP2;ratioP2;P2;SDS_P1;SDS_P2;PMS_P1;PMS_P2;Temp;Humidity;BMP_temperature;BMP_pressure;BME280_temperature;BME280_humidity;BME280_pressure;Samples;Min_cycle;Max_cycle;Signal;HPM_P1;HPM_P2
2022/01/23 00:01:51;;;;;;;8.77;3.95;;;4.80;99.90;;;;;;5017187;28;20046;-79
2022/01/23 00:04:18;;;;;;;12.75;4.90;;;4.90;99.90;;;;;;5033178;28;20048;-81
2022/01/23 00:06:45;;;;;;;9.25;4.40;;;4.90;99.90;;;;;;5033269;28;20045;-81
2022/01/23 00:09:14;;;;;;;12.73;3.85;;;4.90;99.90;;;;;;5016398;28;20045;-79
2022/01/23 00:11:47;;;;;;;12.10;4.25;;;4.80;99.90;;;;;;5000675;28;20133;-80
2022/01/23 00:19:40;;;;;;;;;;;4.90;99.90;;;;;;5033356;28;20130;-80
2022/01/23 00:22:09;;;;;;;11.05;4.35;;;4.90;99.90;;;;;;5015935;28;20019;-81
2022/01/23 00:33:07;;;;;;;10.88;4.30;;;5.00;99.90;;;;;;4974301;28;20057;-79
2022/01/23 00:35:35;;;;;;;7.93;3.70;;;5.00;99.90;;;;;;5001971;28;20053;-81
2022/01/23 00:38:03;;;;;;;11.15;4.35;;;5.00;99.90;;;;;;5030744;28;20045;-79
2022/01/23 00:40:30;;;;;;;12.13;3.80;;;5.00;99.90;;;;;;5013543;28;20049;-79
2022/01/23 00:42:58;;;;;;;10.10;4.60;;;4.90;99.90;;;;;;5031117;28;20038;-79
2022/01/23 00:45:35;;;;;;;6.93;4.63;;;4.90;99.90;;;;;;5013686;28;20049;-79
2022/01/23 00:48:07;;;;;;;12.95;5.15;;;4.90;99.90;;;;;;5029199;28;20399;-79
2022/01/23 00:50:46;;;;;;;13.50;5.35;;;4.90;99.90;;;;;;5013654;28;20081;-79
2022/01/23 00:53:13;;;;;;;11.07;4.57;;;4.90;99.90;;;;;;5014360;28;20041;-79
2022/01/23 00:55:41;;;;;;;15.13;5.03;;;4.90;99.90;;;;;;5029966;28;20092;-79
2022/01/23 00:58:08;;;;;;;12.95;5.63;;;4.90;99.90;;;;;;5030914;28;20087;-80
2022/01/23 01:00:35;;;;;;;19.20;5.70;;;4.90;99.90;;;;;;5013196;28;20087;-80
2022/01/23 01:03:01;;;;;;;16.63;5.25;;;4.90;99.90;;;;;;5030395;28;20041;-80
2022/01/23 01:05:28;;;;;;;13.00;5.70;;;4.90;99.90;;;;;;5030121;28;20547;-80
2022/01/23 01:07:55;;;;;;;17.35;5.93;;;4.90;99.90;;;;;;5013671;28;20038;-79
2022/01/23 01:10:27;;;;;;;9.55;5.45;;;4.90;99.90;;;;;;4997212;28;20099;-80
2022/01/23 01:12:58;;;;;;;10.85;5.20;;;4.90;99.90;;;;;;5030206;28;20042;-79
2022/01/23 01:39:09;;;;;;;15.75;5.85;;;5.10;99.90;;;;;;5029403;28;20049;-81
2022/01/23 01:41:40;;;;;;;13.02;5.80;;;5.00;99.90;;;;;;5029345;28;20064;-79
2022/01/23 01:44:07;;;;;;;14.23;5.55;;;5.00;99.90;;;;;;5029645;28;20041;-81
2022/01/23 01:46:33;;;;;;;13.02;6.03;;;5.00;99.90;;;;;;5029852;28;20719;-79
2022/01/23 01:48:59;;;;;;;12.98;5.15;;;5.00;99.90;;;;;;5029517;28;20050;-81
2022/01/23 01:51:31;;;;;;;15.18;5.60;;;4.90;99.90;;;;;;5030013;28;20034;-79
2022/01/23 01:54:05;;;;;;;9.60;4.83;;;5.00;99.90;;;;;;5013655;28;20054;-80
2022/01/23 01:56:38;;;;;;;10.70;5.45;;;5.00;99.90;;;;;;5014432;28;20116;-81
2022/01/23 01:59:34;;;;;;;11.77;4.65;;;5.00;99.90;;;;;;5029678;28;20045;-81
2022/01/23 02:09:56;;;;;;;14.30;5.55;;;4.90;99.90;;;;;;5030152;28;20374;-79
2022/01/23 02:23:02;;;;;;;14.85;5.38;;;5.00;99.90;;;;;;5029392;28;20041;-79
2022/01/23 02:55:38;;;;;;;14.93;5.95;;;5.00;99.90;;;;;;5032056;28;20050;-79
2022/01/23 02:58:05;;;;;;;17.25;6.78;;;5.00;99.90;;;;;;5017435;28;20045;-81
2022/01/23 03:00:36;;;;;;;11.43;5.43;;;4.90;99.90;;;;;;5015894;28;20056;-79
2022/01/23 03:03:09;;;;;;;11.13;4.28;;;4.90;99.90;;;;;;5032779;28;20138;-80
2022/01/23 03:05:38;;;;;;;18.10;5.80;;;4.90;99.90;;;;;;5031960;28;20038;-80
2022/01/23 03:08:20;;;;;;;12.57;5.63;;;4.90;99.90;;;;;;5000098;28;20049;-81
2022/01/23 03:10:57;;;;;;;20.47;7.23;;;4.90;99.90;;;;;;5031482;28;20197;-80
2022/01/23 03:24:36;;;;;;;12.93;6.15;;;4.80;99.90;;;;;;4961416;28;20055;-79
2022/01/23 03:29:40;;;;;;;15.30;7.05;;;4.90;99.90;;;;;;5032044;28;20046;-79
2022/01/23 03:32:22;;;;;;;22.10;6.82;;;4.90;99.90;;;;;;5032870;28;20041;-81
2022/01/23 03:34:48;;;;;;;14.40;6.18;;;4.90;99.90;;;;;;5017886;28;20033;-79
2022/01/23 03:37:13;;;;;;;17.90;6.30;;;4.90;99.90;;;;;;5032709;28;20061;-79
2022/01/23 03:39:39;;;;;;;18.15;6.75;;;4.90;99.90;;;;;;5015379;28;20039;-79
2022/01/23 03:42:05;;;;;;;17.65;6.32;;;4.80;99.90;;;;;;5015130;28;20408;-80
2022/01/23 03:44:34;;;;;;;16.48;6.18;;;4.80;99.90;;;;;;5031578;28;20041;-80
2022/01/23 03:49:43;;;;;;;;;;;4.80;99.90;;;;;;5017208;28;20046;-80
2022/01/23 03:52:12;;;;;;;11.23;4.90;;;4.90;99.90;;;;;;5031657;28;19982;-81
2022/01/23 03:54:39;;;;;;;17.30;5.68;;;4.80;99.90;;;;;;5016588;28;20179;-80
2022/01/23 03:57:07;;;;;;;13.70;5.55;;;4.90;99.90;;;;;;5030632;28;20041;-80
2022/01/23 03:59:33;;;;;;;15.20;6.00;;;4.90;99.90;;;;;;5031460;28;20045;-80
2022/01/23 04:01:59;;;;;;;10.40;5.60;;;4.90;99.90;;;;;;5031420;28;20128;-79
2022/01/23 04:04:38;;;;;;;9.88;5.65;;;5.00;99.90;;;;;;5015034;28;20095;-79
2022/01/23 04:07:12;;;;;;;17.45;7.00;;;4.90;99.90;;;;;;5018340;28;20042;-79
2022/01/23 04:09:39;;;;;;;10.68;4.90;;;4.90;99.90;;;;;;5016590;28;20049;-81
2022/01/23 04:12:09;;;;;;;9.98;4.35;;;5.00;99.90;;;;;;5016989;28;20038;-80
2022/01/23 04:14:38;;;;;;;18.45;5.85;;;5.00;99.90;;;;;;5017017;28;20049;-81
2022/01/23 04:19:55;;;;;;;12.68;6.30;;;5.00;99.90;;;;;;5017197;28;20053;-79
2022/01/23 05:00:18;;;;;;;14.15;5.90;;;4.90;99.90;;;;;;5018197;28;20055;-80
2022/01/23 05:05:42;;;;;;;10.73;4.88;;;4.90;99.90;;;;;;4997938;28;20050;-80
2022/01/23 05:08:16;;;;;;;14.18;5.47;;;4.90;99.90;;;;;;4999024;28;20052;-79
2022/01/23 05:10:42;;;;;;;13.88;5.68;;;4.90;99.90;;;;;;5000332;28;20037;-79
2022/01/23 05:13:07;;;;;;;18.55;6.95;;;4.90;99.90;;;;;;5031947;28;20415;-79
2022/01/23 05:15:34;;;;;;;11.63;6.13;;;4.90;99.90;;;;;;5015708;28;20500;-81
2022/01/23 05:18:00;;;;;;;12.80;6.25;;;4.90;99.90;;;;;;5015350;28;20081;-79
2022/01/23 05:20:28;;;;;;;12.48;6.65;;;4.90;99.90;;;;;;4999062;28;20072;-80
2022/01/23 05:23:00;;;;;;;20.50;7.18;;;4.90;99.90;;;;;;5015632;28;20049;-80
2022/01/23 05:25:29;;;;;;;8.05;5.10;;;4.80;99.90;;;;;;5031742;28;20088;-80
2022/01/23 05:27:55;;;;;;;9.85;4.97;;;4.80;99.90;;;;;;5015905;28;20472;-79
2022/01/23 05:30:22;;;;;;;12.65;5.18;;;4.70;99.90;;;;;;5031631;28;20132;-79
2022/01/23 05:32:48;;;;;;;18.48;6.65;;;4.70;99.90;;;;;;4999240;28;20128;-80
2022/01/23 05:35:20;;;;;;;14.73;5.47;;;4.60;99.90;;;;;;5014726;28;20149;-80
2022/01/23 05:37:46;;;;;;;16.17;5.82;;;4.60;99.90;;;;;;5031501;28;20080;-79
2022/01/23 05:40:15;;;;;;;22.55;7.45;;;4.50;99.90;;;;;;5014878;28;20056;-80
2022/01/23 05:42:42;;;;;;;13.88;5.78;;;4.50;99.90;;;;;;5015343;28;20049;-80
2022/01/23 05:45:08;;;;;;;20.95;7.00;;;4.40;99.90;;;;;;5015646;28;20049;-79
2022/01/23 05:47:34;;;;;;;23.60;7.10;;;4.30;99.90;;;;;;5015183;28;20439;-80
2022/01/23 05:50:00;;;;;;;27.58;7.22;;;4.20;99.90;;;;;;4998562;28;20040;-80
2022/01/23 05:52:26;;;;;;;22.25;7.43;;;4.20;99.90;;;;;;4998692;28;20045;-79
2022/01/23 05:54:52;;;;;;;16.38;6.47;;;4.20;99.90;;;;;;5031435;28;20392;-79
2022/01/23 05:57:18;;;;;;;21.23;7.18;;;4.10;99.90;;;;;;5014861;28;20042;-80
2022/01/23 05:59:43;;;;;;;17.48;6.38;;;4.10;99.90;;;;;;5014650;28;20052;-80
2022/01/23 06:02:09;;;;;;;26.02;7.95;;;4.10;99.90;;;;;;5015123;28;20612;-81
2022/01/23 06:04:35;;;;;;;25.20;7.45;;;4.10;99.90;;;;;;5031459;28;20060;-80
2022/01/23 06:07:01;;;;;;;28.35;7.80;;;4.00;99.90;;;;;;5031429;28;20049;-80
2022/01/23 06:09:27;;;;;;;24.20;8.52;;;4.00;99.90;;;;;;5014732;28;20125;-80
2022/01/23 06:11:53;;;;;;;26.25;9.30;;;4.00;99.90;;;;;;4998696;28;20060;-80
2022/01/23 06:14:19;;;;;;;28.95;9.00;;;4.00;99.90;;;;;;5031378;28;20492;-81
2022/01/23 06:16:45;;;;;;;31.08;8.70;;;4.10;99.90;;;;;;5014855;28;20045;-80
2022/01/23 06:19:11;;;;;;;30.50;8.35;;;4.10;99.90;;;;;;5031059;28;20404;-79
2022/01/23 06:21:37;;;;;;;35.63;8.77;;;4.20;99.90;;;;;;5034182;28;20045;-80
2022/01/23 06:24:09;;;;;;;40.75;10.43;;;4.10;99.90;;;;;;5002217;28;20034;-80
2022/01/23 06:26:46;;;;;;;82.32;13.38;;;4.20;99.90;;;;;;5035166;28;20045;-80
2022/01/23 06:29:14;;;;;;;95.88;13.45;;;4.20;99.90;;;;;;5018465;28;20136;-80
2022/01/23 06:31:42;;;;;;;149.50;18.23;;;4.20;99.90;;;;;;5018821;28;20128;-80
2022/01/23 06:34:09;;;;;;;194.52;19.85;;;4.20;99.90;;;;;;5018468;28;20049;-79
2022/01/23 06:36:35;;;;;;;170.13;16.70;;;4.20;99.90;;;;;;5018076;28;20060;-79
2022/01/23 06:39:04;;;;;;;216.43;19.05;;;4.20;99.90;;;;;;5018446;28;20120;-79
2022/01/23 06:41:30;;;;;;;241.20;20.65;;;4.20;99.90;;;;;;5034839;28;20415;-80
2022/01/23 06:43:56;;;;;;;195.35;16.67;;;4.30;99.90;;;;;;5018509;28;20049;-80
2022/01/23 06:46:22;;;;;;;253.90;18.98;;;4.20;99.90;;;;;;5018312;28;20056;-79
2022/01/23 06:48:47;;;;;;;207.93;18.65;;;4.20;99.90;;;;;;5034602;28;20041;-79
2022/01/23 06:51:13;;;;;;;188.52;16.70;;;4.20;99.90;;;;;;5034642;28;20045;-79
2022/01/23 06:53:39;;;;;;;161.15;16.60;;;4.30;99.90;;;;;;5001888;28;20045;-80
2022/01/23 06:56:05;;;;;;;168.60;17.02;;;4.30;99.90;;;;;;5034305;28;20143;-80
2022/01/23 06:58:30;;;;;;;107.50;16.00;;;4.20;99.90;;;;;;5017833;28;20049;-79
2022/01/23 07:00:56;;;;;;;133.32;17.35;;;4.30;99.90;;;;;;5034112;28;20072;-79
2022/01/23 07:03:22;;;;;;;140.23;18.55;;;4.30;99.90;;;;;;5017868;28;20037;-80
2022/01/23 07:05:48;;;;;;;165.90;19.27;;;4.30;99.90;;;;;;5017911;28;20140;-80
2022/01/23 07:08:13;;;;;;;118.10;17.23;;;4.40;99.90;;;;;;5017878;28;20045;-79
2022/01/23 07:10:39;;;;;;;180.23;21.42;;;4.40;99.90;;;;;;5017784;28;20041;-80
2022/01/23 07:13:05;;;;;;;194.45;22.02;;;4.40;99.90;;;;;;5001457;28;20480;-80
2022/01/23 07:15:30;;;;;;;244.63;22.70;;;4.40;99.90;;;;;;5033898;28;20557;-80
2022/01/23 07:17:56;;;;;;;351.70;29.08;;;4.40;99.90;;;;;;5034005;28;20080;-79
2022/01/23 07:20:22;;;;;;;389.98;28.20;;;4.30;99.90;;;;;;5033909;28;20053;-80
2022/01/23 07:22:48;;;;;;;399.67;31.38;;;4.30;99.90;;;;;;5017490;28;20045;-81
2022/01/23 07:25:14;;;;;;;324.38;28.90;;;4.40;99.90;;;;;;5034100;28;20498;-80
2022/01/23 07:27:47;;;;;;;330.27;28.88;;;4.50;99.90;;;;;;5017395;28;20050;-79
2022/01/23 07:30:27;;;;;;;384.80;33.08;;;4.50;99.90;;;;;;5033801;28;20045;-80
2022/01/23 07:32:53;;;;;;;318.65;30.15;;;4.50;99.90;;;;;;5017291;28;20041;-79
2022/01/23 07:35:19;;;;;;;334.92;27.67;;;4.40;99.90;;;;;;5033460;28;20149;-80
2022/01/23 07:37:45;;;;;;;397.60;32.78;;;4.40;99.90;;;;;;5034083;28;20492;-80
2022/01/23 07:40:11;;;;;;;370.88;30.58;;;4.60;99.90;;;;;;4984799;28;20034;-80
2022/01/23 07:42:39;;;;;;;291.58;29.30;;;4.40;99.90;;;;;;5000998;28;20045;-80
2022/01/23 07:45:06;;;;;;;95.05;18.83;;;4.30;99.90;;;;;;5033861;28;20118;-80
2022/01/23 07:47:32;;;;;;;84.15;19.33;;;4.40;99.90;;;;;;5033649;28;20056;-81
2022/01/23 07:49:57;;;;;;;59.58;17.27;;;4.50;99.90;;;;;;5016965;28;20124;-80
2022/01/23 07:52:23;;;;;;;66.40;17.45;;;4.50;99.90;;;;;;5033530;28;20038;-81
2022/01/23 07:54:49;;;;;;;58.72;16.95;;;4.60;99.90;;;;;;5016956;28;20089;-80
2022/01/23 07:57:15;;;;;;;61.60;18.15;;;4.60;99.90;;;;;;5033440;28;20045;-80
2022/01/23 07:59:40;;;;;;;76.55;18.40;;;4.50;99.90;;;;;;5017177;28;20091;-80
2022/01/23 08:02:06;;;;;;;90.65;19.33;;;4.60;99.90;;;;;;5001050;28;20049;-80
2022/01/23 08:04:32;;;;;;;60.42;17.13;;;4.60;99.90;;;;;;5016932;28;20042;-79
2022/01/23 08:07:19;;;;;;;62.65;15.15;;;4.60;99.90;;;;;;5016933;28;20095;-79
2022/01/23 08:09:45;;;;;;;37.00;10.57;;;4.60;99.90;;;;;;5016776;28;20056;-80
2022/01/23 08:12:11;;;;;;;61.58;12.18;;;4.70;99.90;;;;;;5016810;28;20128;-81
2022/01/23 08:14:36;;;;;;;81.03;15.98;;;4.80;99.90;;;;;;5016611;28;20077;-79
2022/01/23 08:17:02;;;;;;;78.15;15.63;;;4.80;99.90;;;;;;5016787;28;20045;-80
2022/01/23 08:19:28;;;;;;;68.35;12.65;;;4.80;99.90;;;;;;5016519;28;20049;-79
2022/01/23 08:21:53;;;;;;;108.00;17.00;;;4.80;99.90;;;;;;5000270;28;20042;-80
2022/01/23 08:24:19;;;;;;;83.22;14.82;;;4.80;99.90;;;;;;5016433;28;20055;-80
2022/01/23 08:26:45;;;;;;;127.88;18.98;;;4.90;99.90;;;;;;5032748;28;20541;-81
2022/01/23 08:29:10;;;;;;;98.93;17.25;;;4.90;99.90;;;;;;5032824;28;20092;-81
2022/01/23 08:31:36;;;;;;;110.55;17.42;;;4.90;99.90;;;;;;5000433;28;20111;-79
2022/01/23 08:34:02;;;;;;;66.90;11.60;;;4.90;99.90;;;;;;4999875;28;20041;-79
2022/01/23 08:36:29;;;;;;;63.00;11.30;;;4.90;99.90;;;;;;5015949;28;20053;-79
2022/01/23 08:38:58;;;;;;;90.47;14.10;;;4.80;99.90;;;;;;5032626;28;20478;-79
2022/01/23 08:43:50;;;;;;;82.53;13.05;;;4.90;99.90;;;;;;5031920;28;20079;-80
2022/01/23 08:46:17;;;;;;;92.07;14.57;;;5.10;99.90;;;;;;5032556;28;20075;-80
2022/01/23 08:48:43;;;;;;;65.53;11.23;;;4.90;99.90;;;;;;5016020;28;20121;-80
2022/01/23 08:51:10;;;;;;;51.90;11.27;;;5.00;99.90;;;;;;5016301;28;20045;-80
2022/01/23 08:53:36;;;;;;;75.60;12.95;;;5.10;99.90;;;;;;4999636;28;20044;-80
2022/01/23 08:56:03;;;;;;;50.65;11.68;;;5.00;99.90;;;;;;5032582;28;20041;-80
2022/01/23 08:58:29;;;;;;;45.28;11.25;;;5.10;99.90;;;;;;5015672;28;20049;-81
2022/01/23 09:00:55;;;;;;;32.80;11.38;;;5.10;99.90;;;;;;5015957;28;20476;-79
2022/01/23 09:03:20;;;;;;;29.10;11.13;;;5.20;99.90;;;;;;5015875;28;20044;-79
2022/01/23 09:05:46;;;;;;;30.40;10.60;;;5.40;99.90;;;;;;5015829;28;20369;-79
2022/01/23 09:08:12;;;;;;;32.70;10.23;;;5.30;99.90;;;;;;5015612;28;20534;-79
2022/01/23 09:10:51;;;;;;;33.08;10.60;;;5.30;99.90;;;;;;5031933;28;20408;-80
2022/01/23 09:13:41;;;;;;;33.50;10.98;;;5.30;99.90;;;;;;5001237;28;20045;-81
2022/01/23 09:16:07;;;;;;;29.35;10.73;;;5.40;99.90;;;;;;5032144;28;20081;-79
2022/01/23 09:18:33;;;;;;;34.67;10.52;;;5.40;99.90;;;;;;5031797;28;20112;-81
2022/01/23 09:20:59;;;;;;;18.58;8.27;;;5.40;99.90;;;;;;5015701;28;20333;-80
2022/01/23 09:23:25;;;;;;;17.55;7.22;;;5.40;99.90;;;;;;5015767;28;20041;-80
2022/01/23 09:25:51;;;;;;;17.42;8.75;;;5.50;99.90;;;;;;5015380;28;20128;-81
2022/01/23 09:28:19;;;;;;;22.05;9.60;;;5.40;99.90;;;;;;5015472;28;20119;-80
2022/01/23 09:30:50;;;;;;;16.98;9.18;;;5.70;99.90;;;;;;5015353;28;20053;-79
2022/01/23 09:33:17;;;;;;;19.55;9.27;;;5.50;99.90;;;;;;5016069;28;20045;-79
2022/01/23 09:35:42;;;;;;;16.88;8.50;;;5.50;99.90;;;;;;5031277;28;20049;-81
2022/01/23 09:38:08;;;;;;;14.93;7.60;;;5.50;99.90;;;;;;5031516;28;20504;-80
2022/01/23 09:40:39;;;;;;;15.63;8.52;;;5.60;99.90;;;;;;5015035;28;20076;-80
2022/01/23 09:43:20;;;;;;;16.33;8.00;;;5.60;99.90;;;;;;5030355;28;20042;-80
2022/01/23 09:45:49;;;;;;;18.33;9.35;;;5.60;99.90;;;;;;5028869;28;20397;-81
2022/01/23 09:48:17;;;;;;;15.52;8.30;;;5.80;99.90;;;;;;5013252;28;20373;-79
2022/01/23 09:50:46;;;;;;;16.58;8.75;;;5.90;99.90;;;;;;5013311;28;20094;-79
2022/01/23 09:53:13;;;;;;;14.15;7.32;;;5.80;99.90;;;;;;5012961;28;20045;-81
2022/01/23 09:55:40;;;;;;;12.63;6.78;;;5.90;99.90;;;;;;5028617;28;20046;-79
2022/01/23 09:58:06;;;;;;;15.40;7.40;;;5.80;99.90;;;;;;5030266;28;20083;-79
2022/01/23 10:00:33;;;;;;;15.15;6.93;;;5.90;99.90;;;;;;5030994;28;20112;-81
2022/01/23 10:02:59;;;;;;;9.60;5.60;;;6.00;99.90;;;;;;5030331;28;20088;-81
2022/01/23 10:05:26;;;;;;;8.18;4.88;;;6.20;99.90;;;;;;5012436;28;20399;-80
2022/01/23 10:07:53;;;;;;;12.88;6.10;;;6.20;99.90;;;;;;5028937;28;20037;-81
2022/01/23 10:10:25;;;;;;;9.27;5.55;;;6.20;99.90;;;;;;5012873;28;20041;-81
2022/01/23 10:12:55;;;;;;;7.88;4.43;;;6.30;99.90;;;;;;5029521;28;20038;-81
2022/01/23 10:15:22;;;;;;;10.68;4.72;;;6.40;99.90;;;;;;5029737;28;20046;-80
2022/01/23 10:17:48;;;;;;;5.55;4.05;;;6.50;99.90;;;;;;5012878;28;20068;-81
2022/01/23 10:20:14;;;;;;;6.05;3.90;;;6.30;99.90;;;;;;5029481;28;20068;-80
2022/01/23 10:22:44;;;;;;;4.38;3.00;;;6.20;99.90;;;;;;5029562;28;20042;-80
2022/01/23 10:25:13;;;;;;;5.32;3.40;;;6.20;99.90;;;;;;5010598;28;20439;-81
2022/01/23 10:28:05;;;;;;;5.25;3.97;;;6.20;99.90;;;;;;5028811;28;20514;-81
2022/01/23 10:30:56;;;;;;;3.85;3.22;;;6.30;99.90;;;;;;5029308;28;20050;-81
2022/01/23 10:33:33;;;;;;;5.07;2.95;;;6.40;99.90;;;;;;5029012;28;20451;-81
2022/01/23 10:36:05;;;;;;;7.78;3.53;;;6.40;99.90;;;;;;5029294;28;20123;-81
2022/01/23 10:38:51;;;;;;;5.82;3.58;;;6.40;99.90;;;;;;5012222;28;20435;-80
2022/01/23 10:49:52;;;;;;;4.68;3.70;;;6.50;99.90;;;;;;5031219;28;20057;-81
2022/01/23 10:52:48;;;;;;;5.70;3.22;;;6.60;99.90;;;;;;5015033;28;20053;-80
2022/01/23 10:55:20;;;;;;;5.55;3.30;;;6.70;99.90;;;;;;5013063;28;20056;-81
2022/01/23 10:57:50;;;;;;;5.78;3.95;;;6.60;99.90;;;;;;5030687;28;20038;-80
2022/01/23 11:00:34;;;;;;;4.28;3.38;;;6.70;99.90;;;;;;5014608;28;20049;-80
2022/01/23 11:03:14;;;;;;;8.35;4.10;;;6.70;99.90;;;;;;5030652;28;20046;-80
2022/01/23 11:05:41;;;;;;;5.63;3.22;;;6.70;99.90;;;;;;5030545;28;20077;-81
2022/01/23 11:08:27;;;;;;;3.83;3.08;;;6.70;99.90;;;;;;5034007;28;20042;-79
2022/01/23 11:11:00;;;;;;;9.43;3.95;;;6.70;99.90;;;;;;5034194;28;20105;-80
2022/01/23 11:19:17;;;;;;;6.47;3.75;;;6.80;99.90;;;;;;5034101;28;20049;-81
2022/01/23 11:21:43;;;;;;;6.13;3.47;;;6.80;99.90;;;;;;5017548;28;20397;-82
2022/01/23 11:24:12;;;;;;;6.43;3.63;;;6.80;99.90;;;;;;5001028;28;20077;-81
2022/01/23 11:26:37;;;;;;;5.28;2.85;;;6.80;99.90;;;;;;5034116;28;20066;-81
2022/01/23 11:29:18;;;;;;;5.22;3.05;;;6.80;99.90;;;;;;5017417;28;20041;-82
2022/01/23 11:31:44;;;;;;;4.03;3.00;;;6.80;99.90;;;;;;5017493;28;20107;-80
2022/01/23 11:34:14;;;;;;;5.00;2.85;;;6.80;99.90;;;;;;5033943;28;20135;-82
2022/01/23 11:36:41;;;;;;;5.45;3.15;;;6.80;99.90;;;;;;5017184;28;20043;-81
2022/01/23 11:39:54;;;;;;;5.45;3.40;;;6.70;99.90;;;;;;5017394;28;20518;-80
2022/01/23 11:59:41;;;;;;;6.15;4.15;;;6.90;99.90;;;;;;5033241;28;20076;-81
2022/01/23 12:02:14;;;;;;;6.20;4.35;;;7.00;99.90;;;;;;5015920;28;20053;-81
2022/01/23 12:05:03;;;;;;;6.95;4.68;;;6.90;99.90;;;;;;5016665;28;20493;-80
2022/01/23 12:07:29;;;;;;;6.90;3.00;;;7.00;99.90;;;;;;5033712;28;20041;-80
2022/01/23 12:10:15;;;;;;;4.68;3.08;;;7.00;99.90;;;;;;5000147;28;20048;-81
2022/01/23 12:12:45;;;;;;;4.65;3.28;;;7.00;99.90;;;;;;5016540;28;20046;-82
2022/01/23 12:18:17;;;;;;;5.88;3.22;;;7.00;99.90;;;;;;5032219;28;20393;-80
2022/01/23 12:20:44;;;;;;;5.15;2.72;;;7.00;99.90;;;;;;5032918;28;20045;-82
2022/01/23 12:23:11;;;;;;;3.22;2.53;;;7.00;99.90;;;;;;5016407;28;20060;-80
2022/01/23 12:25:47;;;;;;;3.83;2.38;;;7.00;99.90;;;;;;5032946;28;20428;-81
2022/01/23 12:28:28;;;;;;;3.50;2.40;;;6.90;99.90;;;;;;5032945;28;20041;-81
2022/01/23 12:30:57;;;;;;;4.57;2.90;;;6.80;99.90;;;;;;5016150;28;20042;-80
2022/01/23 12:33:44;;;;;;;7.13;2.92;;;6.80;99.90;;;;;;5032647;28;20047;-80
2022/01/23 12:36:12;;;;;;;3.75;1.90;;;6.80;99.90;;;;;;5032691;28;20045;-80
2022/01/23 12:38:41;;;;;;;4.85;2.25;;;6.70;99.90;;;;;;5015952;28;20069;-81
2022/01/23 12:41:27;;;;;;;3.35;2.30;;;6.70;99.90;;;;;;5032559;28;20044;-80
2022/01/23 12:44:05;;;;;;;4.57;2.35;;;6.80;99.90;;;;;;5026670;28;20055;-80
2022/01/23 12:46:32;;;;;;;4.22;2.25;;;6.80;99.90;;;;;;5016522;28;20050;-81
2022/01/23 12:49:13;;;;;;;3.70;2.10;;;6.90;99.90;;;;;;5032308;28;20136;-81
2022/01/23 12:51:41;;;;;;;3.70;2.53;;;6.90;99.90;;;;;;5032667;28;20534;-81
2022/01/23 12:54:10;;;;;;;5.65;2.38;;;6.90;99.90;;;;;;5032446;28;20566;-81
2022/01/23 12:56:44;;;;;;;2.75;1.92;;;6.90;99.90;;;;;;5032206;28;20056;-81
2022/01/23 12:59:19;;;;;;;4.13;1.98;;;6.90;99.90;;;;;;5015532;28;20057;-81
2022/01/23 13:01:47;;;;;;;6.47;2.13;;;6.90;99.90;;;;;;5015958;28;20116;-81
2022/01/23 13:04:15;;;;;;;2.60;2.33;;;6.90;99.90;;;;;;5032089;28;20129;-81
2022/01/23 13:06:52;;;;;;;4.68;2.03;;;7.10;99.90;;;;;;5016411;28;20072;-80
2022/01/23 13:12:30;;;;;;;4.35;2.92;;;6.90;99.90;;;;;;5032340;28;20080;-81
2022/01/23 13:32:07;;;;;;;6.75;3.45;;;6.70;99.90;;;;;;5031792;28;20056;-81
2022/01/23 13:34:41;;;;;;;8.35;4.05;;;6.70;99.90;;;;;;5031469;28;20079;-81
2022/01/23 13:37:10;;;;;;;10.77;3.88;;;6.70;99.90;;;;;;5031530;28;20111;-81
2022/01/23 13:39:50;;;;;;;7.38;4.78;;;6.90;99.90;;;;;;5014942;28;20136;-81
2022/01/23 13:59:25;;;;;;;7.57;3.53;;;6.80;99.90;;;;;;5030069;28;20100;-81
2022/01/23 14:01:57;;;;;;;5.25;3.78;;;6.70;99.90;;;;;;5028263;28;20045;-80
2022/01/23 14:04:27;;;;;;;6.72;3.92;;;6.70;99.90;;;;;;4996876;28;20038;-81
2022/01/23 14:06:53;;;;;;;10.15;4.50;;;6.70;99.90;;;;;;5029299;28;20052;-81
2022/01/23 14:09:20;;;;;;;8.80;4.40;;;6.70;99.90;;;;;;5013036;28;20045;-81
2022/01/23 14:11:47;;;;;;;7.45;3.92;;;6.70;99.90;;;;;;5013229;28;20056;-81
2022/01/23 14:14:19;;;;;;;7.43;3.92;;;6.70;99.90;;;;;;5013231;28;20508;-80
2022/01/23 14:16:48;;;;;;;9.07;3.67;;;6.60;99.90;;;;;;5013363;28;20064;-81
2022/01/23 14:19:15;;;;;;;4.80;3.33;;;6.60;99.90;;;;;;5012708;28;20044;-80
2022/01/23 14:21:43;;;;;;;6.28;4.35;;;6.60;99.90;;;;;;5013083;28;20463;-80
2022/01/23 14:24:08;;;;;;;7.95;3.75;;;6.60;99.90;;;;;;5012176;28;20041;-81
2022/01/23 14:26:34;;;;;;;7.55;3.83;;;6.60;99.90;;;;;;5029603;28;20049;-81
2022/01/23 14:29:06;;;;;;;11.30;4.80;;;6.60;99.90;;;;;;5028885;28;20353;-81
2022/01/23 14:31:40;;;;;;;5.97;3.67;;;6.70;99.90;;;;;;5027230;28;20057;-81
2022/01/23 14:34:23;;;;;;;9.82;4.07;;;6.70;99.90;;;;;;5028658;28;20065;-80
2022/01/23 14:36:56;;;;;;;4.90;2.63;;;6.60;99.90;;;;;;5028432;28;20052;-80
2022/01/23 14:39:23;;;;;;;;;;;6.60;99.90;;;;;;5029178;28;20057;-81
2022/01/23 14:41:49;;;;;;;6.32;3.85;;;6.60;99.90;;;;;;5014227;28;19948;-82
2022/01/23 14:44:15;;;;;;;7.13;3.80;;;6.50;99.90;;;;;;5016353;28;20037;-82
2022/01/23 14:46:40;;;;;;;6.10;4.10;;;6.50;99.90;;;;;;5016374;28;20052;-80
2022/01/23 14:49:10;;;;;;;7.10;3.60;;;6.50;99.90;;;;;;5016368;28;20396;-81
2022/01/23 14:51:38;;;;;;;6.53;3.97;;;6.40;99.90;;;;;;5000918;28;20080;-82
2022/01/23 14:54:04;;;;;;;6.78;4.15;;;6.50;99.90;;;;;;5033420;28;20124;-80
2022/01/23 14:56:32;;;;;;;7.50;4.07;;;6.50;99.90;;;;;;5015957;28;20072;-82
2022/01/23 14:58:58;;;;;;;6.70;3.67;;;6.50;99.90;;;;;;5016382;28;20453;-81
2022/01/23 15:01:24;;;;;;;7.28;4.00;;;6.50;99.90;;;;;;5016106;28;20124;-82
2022/01/23 15:03:52;;;;;;;7.32;4.28;;;6.40;99.90;;;;;;5016432;28;20083;-81
2022/01/23 15:06:21;;;;;;;7.45;4.47;;;6.40;99.90;;;;;;5032361;28;20041;-81
2022/01/23 15:08:47;;;;;;;7.93;4.47;;;6.40;99.90;;;;;;5016457;28;20037;-81
2022/01/23 15:11:13;;;;;;;5.85;3.92;;;6.40;99.90;;;;;;4999951;28;20435;-82
2022/01/23 15:13:39;;;;;;;6.00;3.67;;;6.40;99.90;;;;;;5032370;28;20038;-81
2022/01/23 15:16:05;;;;;;;7.72;4.32;;;6.40;99.90;;;;;;5030279;28;20061;-81
2022/01/23 15:18:31;;;;;;;9.50;4.38;;;6.30;99.90;;;;;;5032368;28;20049;-81
2022/01/23 15:20:57;;;;;;;7.55;4.18;;;6.30;99.90;;;;;;4999151;28;20049;-80
2022/01/23 15:23:23;;;;;;;8.30;4.15;;;6.30;99.90;;;;;;5016300;28;20044;-81
2022/01/23 15:25:49;;;;;;;10.32;4.60;;;6.30;99.90;;;;;;5015633;28;20037;-81
2022/01/23 15:28:15;;;;;;;7.15;4.88;;;6.30;99.90;;;;;;4997505;28;20041;-81
2022/01/23 15:30:42;;;;;;;5.95;3.30;;;6.30;99.90;;;;;;5015801;28;20419;-81
2022/01/23 15:33:08;;;;;;;6.07;3.83;;;6.30;99.90;;;;;;5015676;28;20087;-82
2022/01/23 15:35:37;;;;;;;7.03;4.63;;;6.30;99.90;;;;;;5031766;28;20073;-81
2022/01/23 15:38:03;;;;;;;7.15;4.75;;;6.20;99.90;;;;;;5015497;28;20451;-81
2022/01/23 15:40:29;;;;;;;7.70;4.80;;;6.20;99.90;;;;;;5031955;28;20491;-82
2022/01/23 15:42:55;;;;;;;8.45;5.30;;;6.20;99.90;;;;;;5032199;28;20054;-80
2022/01/23 15:45:24;;;;;;;13.85;4.90;;;6.10;99.90;;;;;;5031446;28;20045;-82
2022/01/23 15:47:51;;;;;;;9.68;4.57;;;6.10;99.90;;;;;;5014972;28;20048;-81
2022/01/23 15:50:19;;;;;;;9.55;4.50;;;6.30;99.90;;;;;;5014943;28;20049;-81
2022/01/23 15:52:45;;;;;;;10.45;4.63;;;6.10;99.90;;;;;;5032302;28;20123;-81
2022/01/23 15:55:13;;;;;;;12.02;4.18;;;6.10;99.90;;;;;;5031559;28;20089;-81
2022/01/23 15:57:40;;;;;;;7.50;5.32;;;6.10;99.90;;;;;;5015251;28;20383;-80
2022/01/23 16:00:09;;;;;;;8.65;4.50;;;6.10;99.90;;;;;;5031493;28;20121;-81
2022/01/23 16:02:35;;;;;;;10.43;5.38;;;6.10;99.90;;;;;;5015246;28;20038;-81
2022/01/23 16:05:01;;;;;;;7.07;4.03;;;6.10;99.90;;;;;;5031064;28;20407;-81
2022/01/23 16:07:27;;;;;;;9.15;4.95;;;6.00;99.90;;;;;;4999620;28;20046;-81
2022/01/23 16:09:53;;;;;;;7.63;5.28;;;6.00;99.90;;;;;;5014201;28;20472;-81
2022/01/23 16:12:18;;;;;;;9.80;5.63;;;6.00;99.90;;;;;;4998838;28;20464;-81
2022/01/23 16:14:45;;;;;;;8.23;5.82;;;6.00;99.90;;;;;;5031020;28;20055;-80
2022/01/23 16:17:11;;;;;;;8.07;6.00;;;6.00;99.90;;;;;;5028782;28;20072;-80
2022/01/23 16:19:37;;;;;;;9.60;5.18;;;6.00;99.90;;;;;;5030738;28;20084;-80
2022/01/23 16:22:04;;;;;;;9.55;6.03;;;6.00;99.90;;;;;;4998217;28;20073;-81
2022/01/23 16:24:29;;;;;;;12.07;4.80;;;6.00;99.90;;;;;;5014273;28;20048;-81
2022/01/23 16:26:56;;;;;;;40.70;8.43;;;6.00;99.90;;;;;;5014985;28;20120;-81
2022/01/23 16:29:23;;;;;;;12.32;7.43;;;6.00;99.90;;;;;;5014838;28;20034;-80
2022/01/23 16:31:51;;;;;;;18.67;11.85;;;6.10;99.90;;;;;;5014385;28;20073;-80
2022/01/23 16:34:17;;;;;;;14.60;6.82;;;6.00;99.90;;;;;;5014679;28;20077;-80
2022/01/23 16:36:43;;;;;;;18.80;12.07;;;6.00;99.90;;;;;;4998001;28;20100;-80
2022/01/23 16:39:14;;;;;;;43.67;25.05;;;6.10;99.90;;;;;;5030976;28;20073;-79